Time;durP1;ratioP1;P1;durP2;ratioP2;P2;SDS_P1;SDS_P2;PMS_P1;PMS_P2;Temp;Humidity;BMP_temperature;BMP_pressure;BME280_temperature;BME280_humidity;BME280_pressure;Samples;Min_cycle;Max_cycle;Signal;HPM_P1;HPM_P2
2022/08/02 00:00:58;;;;;;;0.40;0.30;;;17.40;99.90;;;;;;4968696;28;20437;-70
2022/08/02 00:03:24;;;;;;;0.40;0.20;;;17.40;99.90;;;;;;4952335;28;20407;-70
2022/08/02 00:05:50;;;;;;;0.77;0.47;;;17.40;99.90;;;;;;4954317;28;20429;-70
2022/08/02 00:08:16;;;;;;;0.40;0.20;;;17.40;99.90;;;;;;4987219;28;20457;-71
2022/08/02 00:10:43;;;;;;;0.40;0.22;;;17.50;99.90;;;;;;4972067;28;20886;-70
2022/08/02 00:13:09;;;;;;;0.40;0.20;;;17.50;99.90;;;;;;4972046;28;20445;-70
2022/08/02 00:15:35;;;;;;;0.40;0.20;;;17.30;99.90;;;;;;4972048;28;20740;-70
2022/08/02 00:18:00;;;;;;;0.40;0.20;;;17.30;99.90;;;;;;4987000;28;20399;-71
2022/08/02 00:20:27;;;;;;;0.40;0.20;;;17.30;99.90;;;;;;4984274;28;20496;-71
2022/08/02 00:22:52;;;;;;;0.40;0.30;;;17.30;99.90;;;;;;4952232;28;20951;-70
2022/08/02 00:25:18;;;;;;;0.40;0.20;;;17.30;99.90;;;;;;4952728;28;20408;-70
2022/08/02 00:27:44;;;;;;;0.40;0.40;;;17.30;99.90;;;;;;4952335;28;20424;-70
2022/08/02 00:30:10;;;;;;;0.40;0.20;;;17.40;99.90;;;;;;4961855;28;20925;-70
2022/08/02 00:32:36;;;;;;;0.40;0.20;;;17.30;99.90;;;;;;4987615;28;20485;-70
2022/08/02 00:35:02;;;;;;;0.40;0.30;;;17.30;99.90;;;;;;4971712;28;20520;-70
2022/08/02 00:37:28;;;;;;;0.40;0.20;;;17.30;99.90;;;;;;4987672;28;20526;-70
2022/08/02 00:39:53;;;;;;;0.40;0.30;;;17.30;99.90;;;;;;4971664;28;20944;-70
2022/08/02 00:42:19;;;;;;;0.40;0.20;;;17.30;99.90;;;;;;4971447;28;20503;-70
2022/08/02 00:44:45;;;;;;;0.40;0.30;;;17.30;99.90;;;;;;4971120;28;20395;-70
2022/08/02 00:47:11;;;;;;;0.40;0.20;;;17.30;99.90;;;;;;4970085;28;20423;-70
2022/08/02 00:49:37;;;;;;;0.40;0.20;;;17.30;99.90;;;;;;4971741;28;20472;-70
2022/08/02 00:52:03;;;;;;;0.40;0.30;;;17.30;99.90;;;;;;4970704;28;20875;-70
2022/08/02 00:54:29;;;;;;;0.40;0.20;;;17.30;99.90;;;;;;4968693;28;20429;-70
2022/08/02 00:56:54;;;;;;;0.40;0.30;;;17.30;99.90;;;;;;4967586;28;20396;-70
2022/08/02 00:59:21;;;;;;;0.40;0.30;;;17.30;99.90;;;;;;4969660;28;20498;-70
2022/08/02 01:01:47;;;;;;;0.40;0.30;;;17.30;99.90;;;;;;4970184;28;20448;-70
2022/08/02 01:04:13;;;;;;;0.40;0.20;;;17.30;99.90;;;;;;4987087;28;20415;-69
2022/08/02 01:06:40;;;;;;;0.57;0.57;;;17.30;99.90;;;;;;4971023;28;20411;-70
2022/08/02 01:09:07;;;;;;;0.40;0.20;;;17.50;99.90;;;;;;4970472;28;20411;-70
2022/08/02 01:11:34;;;;;;;0.80;0.80;;;17.50;99.90;;;;;;4970874;28;20399;-69
2022/08/02 01:14:09;;;;;;;0.40;0.20;;;17.50;99.90;;;;;;4969973;28;20420;-69
2022/08/02 01:16:51;;;;;;;0.40;0.30;;;17.50;99.90;;;;;;4987666;28;20463;-70
2022/08/02 01:19:35;;;;;;;0.40;0.30;;;17.40;99.90;;;;;;4990171;28;20398;-69
2022/08/02 01:22:23;;;;;;;0.40;0.20;;;17.40;99.90;;;;;;4989498;28;20467;-70
2022/08/02 01:25:17;;;;;;;0.40;0.40;;;17.30;99.90;;;;;;4989727;28;20441;-69
2022/08/02 01:28:11;;;;;;;0.40;0.30;;;17.30;99.90;;;;;;4989619;28;20422;-70
2022/08/02 01:30:39;;;;;;;0.40;0.20;;;17.20;99.90;;;;;;4990211;28;20402;-69
2022/08/02 01:33:06;;;;;;;0.40;0.20;;;17.20;99.90;;;;;;4989730;28;20386;-69
2022/08/02 01:35:38;;;;;;;0.50;0.50;;;17.20;99.90;;;;;;4989851;28;20402;-69
2022/08/02 01:38:17;;;;;;;0.40;0.30;;;17.20;99.90;;;;;;4989058;28;20476;-70
2022/08/02 01:40:45;;;;;;;0.40;0.20;;;17.20;99.90;;;;;;4990174;28;20871;-69
2022/08/02 01:43:12;;;;;;;0.40;0.30;;;17.00;99.90;;;;;;4973568;28;20417;-70
2022/08/02 01:45:40;;;;;;;0.40;0.30;;;17.10;99.90;;;;;;4973038;28;20486;-69
2022/08/02 01:48:08;;;;;;;0.40;0.30;;;17.00;99.90;;;;;;4989422;28;20422;-69
2022/08/02 01:50:36;;;;;;;0.40;0.20;;;17.00;99.90;;;;;;4973943;28;20977;-69
2022/08/02 01:53:06;;;;;;;0.40;0.20;;;16.90;99.90;;;;;;4989208;28;20454;-69
2022/08/02 01:55:53;;;;;;;0.40;0.20;;;16.90;99.90;;;;;;4985524;28;20395;-69
2022/08/02 01:58:23;;;;;;;0.40;0.20;;;16.90;99.90;;;;;;4988976;28;20480;-69
2022/08/02 02:00:52;;;;;;;0.57;0.57;;;16.90;99.90;;;;;;4988853;28;20399;-69
2022/08/02 02:03:23;;;;;;;0.40;0.30;;;16.90;99.90;;;;;;4989632;28;20442;-69
2022/08/02 02:05:51;;;;;;;0.40;0.30;;;16.90;99.90;;;;;;4989407;28;20402;-69
2022/08/02 02:08:24;;;;;;;0.40;0.20;;;16.90;99.90;;;;;;4973374;28;20425;-69
2022/08/02 02:10:52;;;;;;;0.40;0.30;;;16.90;99.90;;;;;;4989150;28;20402;-69
2022/08/02 02:13:18;;;;;;;0.40;0.20;;;16.90;99.90;;;;;;4973145;28;20394;-69
2022/08/02 02:15:47;;;;;;;0.40;0.30;;;16.80;99.90;;;;;;4973698;28;20426;-69
2022/08/02 02:18:22;;;;;;;0.40;0.20;;;16.80;99.90;;;;;;4989202;28;20477;-69
2022/08/02 02:20:48;;;;;;;0.40;0.20;;;16.80;99.90;;;;;;4988865;28;20402;-69
2022/08/02 02:23:14;;;;;;;0.40;0.20;;;16.80;99.90;;;;;;4988777;28;20392;-69
2022/08/02 02:25:41;;;;;;;0.40;0.20;;;16.80;99.90;;;;;;4990421;28;20387;-69
2022/08/02 02:28:15;;;;;;;0.40;0.30;;;16.80;99.90;;;;;;4972101;28;20741;-69
2022/08/02 02:30:47;;;;;;;0.40;0.30;;;16.80;99.90;;;;;;4988887;28;20406;-69
2022/08/02 02:33:15;;;;;;;0.40;0.20;;;16.80;99.90;;;;;;4988718;28;20410;-69
2022/08/02 02:35:42;;;;;;;0.40;0.20;;;16.90;99.90;;;;;;4972879;28;20403;-69
2022/08/02 02:38:12;;;;;;;0.40;0.30;;;16.80;99.90;;;;;;4989004;28;20898;-69
2022/08/02 02:40:40;;;;;;;0.40;0.30;;;16.80;99.90;;;;;;4988732;28;20407;-69
2022/08/02 02:43:08;;;;;;;0.40;0.30;;;16.80;99.90;;;;;;4972527;28;20391;-69
2022/08/02 02:45:34;;;;;;;0.40;0.20;;;16.90;99.90;;;;;;4988607;28;20422;-70
2022/08/02 02:48:01;;;;;;;0.40;0.30;;;16.80;99.90;;;;;;4972197;28;20464;-69
2022/08/02 02:50:29;;;;;;;0.40;0.20;;;16.70;99.90;;;;;;4988837;28;20909;-69
2022/08/02 02:52:55;;;;;;;0.40;0.20;;;16.70;99.90;;;;;;4988723;28;20433;-68
2022/08/02 02:55:23;;;;;;;0.40;0.20;;;16.70;99.90;;;;;;4979296;28;20800;-69
2022/08/02 02:57:49;;;;;;;0.40;0.20;;;16.70;99.90;;;;;;4969301;28;20400;-69
2022/08/02 03:00:15;;;;;;;0.40;0.40;;;16.60;99.90;;;;;;4983713;28;20789;-69
2022/08/02 03:02:43;;;;;;;0.40;0.20;;;16.60;99.90;;;;;;4988677;28;20397;-68
2022/08/02 03:05:10;;;;;;;0.40;0.30;;;16.60;99.90;;;;;;4972150;28;20448;-69
2022/08/02 03:07:37;;;;;;;0.40;0.30;;;16.60;99.90;;;;;;4972535;28;20422;-69
2022/08/02 03:10:05;;;;;;;0.40;0.20;;;16.60;99.90;;;;;;4972001;28;20922;-70
2022/08/02 03:12:33;;;;;;;0.40;0.30;;;16.60;99.90;;;;;;4972456;28;20397;-69
2022/08/02 03:15:04;;;;;;;0.40;0.20;;;16.60;99.90;;;;;;4971970;28;20387;-69
2022/08/02 03:17:45;;;;;;;0.40;0.20;;;16.60;99.90;;;;;;4972949;28;20461;-69
2022/08/02 03:20:16;;;;;;;0.40;0.20;;;16.60;99.90;;;;;;5050185;28;20395;-68
2022/08/02 03:22:43;;;;;;;0.40;0.20;;;16.70;99.90;;;;;;5033747;28;20402;-68
2022/08/02 03:25:11;;;;;;;0.40;0.20;;;16.60;99.90;;;;;;4965224;28;20398;-69
2022/08/02 03:27:37;;;;;;;0.40;0.30;;;16.60;99.90;;;;;;4965526;28;20426;-69
2022/08/02 03:30:05;;;;;;;0.40;0.30;;;16.60;99.90;;;;;;4971769;28;20902;-69
2022/08/02 03:32:33;;;;;;;0.40;0.20;;;16.60;99.90;;;;;;4988129;28;20490;-69
2022/08/02 03:35:01;;;;;;;0.40;0.20;;;16.50;99.90;;;;;;4988307;28;20402;-69
2022/08/02 03:37:28;;;;;;;0.40;0.30;;;16.50;99.90;;;;;;4972557;28;20389;-68
2022/08/02 03:39:55;;;;;;;0.40;0.30;;;16.50;99.90;;;;;;4971600;28;20391;-69
2022/08/02 03:42:22;;;;;;;0.40;0.20;;;16.40;99.90;;;;;;4971412;28;20409;-69
2022/08/02 03:44:49;;;;;;;0.40;0.20;;;16.50;99.90;;;;;;4971976;28;20463;-68
2022/08/02 03:47:16;;;;;;;0.40;0.20;;;16.60;99.90;;;;;;4972163;28;20453;-69
2022/08/02 03:49:43;;;;;;;0.40;0.20;;;16.50;99.90;;;;;;4974146;28;20409;-69
2022/08/02 03:52:10;;;;;;;0.40;0.20;;;16.60;99.90;;;;;;4987894;28;20486;-69
2022/08/02 03:54:36;;;;;;;0.40;0.40;;;16.50;99.90;;;;;;4968619;28;20399;-69
2022/08/02 03:57:06;;;;;;;0.40;0.20;;;16.50;99.90;;;;;;4953025;28;20439;-68
2022/08/02 03:59:40;;;;;;;0.80;0.80;;;16.50;99.90;;;;;;4953456;28;20432;-68
2022/08/02 04:02:06;;;;;;;0.40;0.20;;;16.50;99.90;;;;;;4965420;28;20456;-69
2022/08/02 04:04:31;;;;;;;0.40;0.20;;;16.50;99.90;;;;;;4949783;29;20745;-68
2022/08/02 04:06:57;;;;;;;0.40;0.20;;;16.50;99.90;;;;;;4949293;28;20894;-68
2022/08/02 04:09:23;;;;;;;0.40;0.20;;;16.50;99.90;;;;;;4987612;28;20411;-68
2022/08/02 04:11:49;;;;;;;0.40;0.30;;;16.40;99.90;;;;;;4971890;28;20839;-68
2022/08/02 04:14:14;;;;;;;0.40;0.30;;;16.30;99.90;;;;;;4971379;28;20398;-69
2022/08/02 04:16:48;;;;;;;0.40;0.30;;;16.40;99.90;;;;;;4987725;28;20518;-68
2022/08/02 04:19:38;;;;;;;0.40;0.20;;;16.40;99.90;;;;;;4987702;28;20394;-68
2022/08/02 04:22:13;;;;;;;0.40;0.20;;;16.40;99.90;;;;;;4986881;28;20403;-68
2022/08/02 04:24:44;;;;;;;0.80;0.70;;;16.40;99.90;;;;;;4987351;28;20410;-69
2022/08/02 04:27:10;;;;;;;0.40;0.30;;;16.50;99.90;;;;;;4987584;28;20414;-68
2022/08/02 04:29:37;;;;;;;0.40;0.20;;;16.50;99.90;;;;;;4971674;28;20409;-68
2022/08/02 04:32:04;;;;;;;0.40;0.20;;;16.50;99.90;;;;;;4970997;28;20449;-68
2022/08/02 04:34:30;;;;;;;0.40;0.30;;;16.50;99.90;;;;;;4971670;28;20492;-68
2022/08/02 04:36:57;;;;;;;0.40;0.20;;;16.40;99.90;;;;;;4987990;28;20409;-68
2022/08/02 04:39:23;;;;;;;0.40;0.30;;;16.60;99.90;;;;;;4971142;28;20502;-68
2022/08/02 04:41:49;;;;;;;0.40;0.30;;;16.60;99.90;;;;;;4971582;28;20879;-68
2022/08/02 04:44:15;;;;;;;0.40;0.20;;;16.60;99.90;;;;;;4971232;28;20414;-68
2022/08/02 04:46:42;;;;;;;0.40;0.20;;;16.70;99.90;;;;;;4971070;28;20504;-68
2022/08/02 04:49:08;;;;;;;0.40;0.30;;;16.70;99.90;;;;;;4987480;28;20433;-68
2022/08/02 04:51:38;;;;;;;0.40;0.25;;;16.70;99.90;;;;;;4971673;28;20436;-68
2022/08/02 04:54:06;;;;;;;0.40;0.40;;;16.80;99.90;;;;;;4974903;28;20449;-68
2022/08/02 04:56:31;;;;;;;0.40;0.20;;;16.70;99.90;;;;;;4974788;28;20403;-68
2022/08/02 04:58:57;;;;;;;0.40;0.20;;;16.80;99.90;;;;;;4975206;28;20521;-68
2022/08/02 05:01:23;;;;;;;0.40;0.20;;;16.80;99.90;;;;;;4974204;28;20969;-69
2022/08/02 05:03:49;;;;;;;0.40;0.20;;;16.80;99.90;;;;;;4974747;28;20474;-69
2022/08/02 05:06:15;;;;;;;0.40;0.20;;;16.80;99.90;;;;;;4990394;28;20399;-69
2022/08/02 05:08:41;;;;;;;0.40;0.20;;;16.90;99.90;;;;;;4990506;28;20438;-68
2022/08/02 05:11:07;;;;;;;0.40;0.30;;;16.90;99.90;;;;;;4974222;28;20420;-69
2022/08/02 05:13:33;;;;;;;0.40;0.20;;;17.00;99.90;;;;;;4974577;28;20874;-68
2022/08/02 05:16:01;;;;;;;0.40;0.20;;;17.00;99.90;;;;;;4990349;28;20457;-68
2022/08/02 05:18:27;;;;;;;0.40;0.20;;;17.00;99.90;;;;;;4990622;28;20505;-68
2022/08/02 05:20:53;;;;;;;0.40;0.20;;;17.00;99.90;;;;;;4990436;28;20403;-68
2022/08/02 05:23:20;;;;;;;0.40;0.20;;;17.10;99.90;;;;;;4974410;28;20405;-68
2022/08/02 05:25:45;;;;;;;0.40;0.20;;;17.10;99.90;;;;;;4974018;28;20452;-68
2022/08/02 05:28:12;;;;;;;0.40;0.20;;;17.20;99.90;;;;;;4990079;28;20453;-68
2022/08/02 05:30:38;;;;;;;0.40;0.20;;;17.20;99.90;;;;;;4974259;28;20866;-68
2022/08/02 05:33:04;;;;;;;0.40;0.20;;;17.20;99.90;;;;;;4973936;28;20478;-69
2022/08/02 05:35:30;;;;;;;0.40;0.30;;;17.30;99.90;;;;;;4990248;28;20411;-69
2022/08/02 05:37:57;;;;;;;0.40;0.20;;;17.30;99.90;;;;;;4974339;28;20410;-69
2022/08/02 05:40:22;;;;;;;0.40;0.30;;;17.40;99.90;;;;;;4973931;28;20403;-69
2022/08/02 05:42:48;;;;;;;0.40;0.30;;;17.50;99.90;;;;;;4973752;28;20398;-69
2022/08/02 05:45:14;;;;;;;0.40;0.20;;;17.50;99.90;;;;;;4989224;28;20419;-68
2022/08/02 05:47:40;;;;;;;0.40;0.40;;;17.50;99.90;;;;;;4974223;28;20427;-68
2022/08/02 05:50:08;;;;;;;0.40;0.30;;;17.60;99.90;;;;;;4990133;28;20389;-69
2022/08/02 05:53:04;;;;;;;0.40;0.20;;;17.60;99.90;;;;;;4974236;28;20838;-69
2022/08/02 05:55:34;;;;;;;0.40;0.30;;;17.50;99.90;;;;;;4936434;28;20424;-69
2022/08/02 05:58:07;;;;;;;0.40;0.20;;;17.60;99.90;;;;;;4971049;28;20400;-69
2022/08/02 06:00:35;;;;;;;0.40;0.20;;;17.70;99.90;;;;;;4984729;28;20426;-69
2022/08/02 06:03:30;;;;;;;0.40;0.20;;;17.60;99.90;;;;;;4988926;28;20402;-69
2022/08/02 06:06:10;;;;;;;0.40;0.20;;;17.70;99.90;;;;;;4989987;28;20399;-69
2022/08/02 06:08:47;;;;;;;0.40;0.20;;;17.70;99.90;;;;;;4989670;28;20430;-69
2022/08/02 06:11:19;;;;;;;0.40;0.20;;;17.80;99.90;;;;;;4989305;28;20504;-69
2022/08/02 06:13:46;;;;;;;0.40;0.20;;;18.00;99.90;;;;;;4989879;28;20398;-69
2022/08/02 06:16:12;;;;;;;0.40;0.30;;;18.10;99.90;;;;;;4990856;28;20448;-69
2022/08/02 06:18:41;;;;;;;0.40;0.30;;;18.20;99.90;;;;;;4973666;28;20963;-68
2022/08/02 06:21:07;;;;;;;0.40;0.20;;;18.30;99.90;;;;;;4972802;28;20872;-69
2022/08/02 06:23:38;;;;;;;0.40;0.20;;;18.40;99.90;;;;;;4973517;28;20449;-69
2022/08/02 06:26:05;;;;;;;0.40;0.20;;;18.50;99.90;;;;;;4974174;28;20387;-68
2022/08/02 06:28:32;;;;;;;0.40;0.20;;;18.50;99.90;;;;;;4973492;28;20426;-68
2022/08/02 06:30:58;;;;;;;0.40;0.20;;;18.50;99.90;;;;;;4973308;28;20413;-68
2022/08/02 06:33:24;;;;;;;0.40;0.20;;;18.50;99.90;;;;;;4973191;28;20418;-68
2022/08/02 06:35:53;;;;;;;0.40;0.30;;;18.60;99.90;;;;;;4989805;28;20506;-68
2022/08/02 06:38:24;;;;;;;0.40;0.20;;;18.50;99.90;;;;;;4989167;28;20403;-68
2022/08/02 06:41:04;;;;;;;0.40;0.20;;;18.50;99.90;;;;;;4989717;28;20395;-68
2022/08/02 06:43:40;;;;;;;0.40;0.20;;;18.60;99.90;;;;;;4988398;28;20463;-69
2022/08/02 06:46:06;;;;;;;0.40;0.20;;;18.60;99.90;;;;;;4988963;28;20434;-69
2022/08/02 06:48:34;;;;;;;0.60;0.60;;;18.70;99.90;;;;;;4989255;28;20422;-68
2022/08/02 06:51:04;;;;;;;0.40;0.20;;;18.70;99.90;;;;;;4973138;28;20394;-69
2022/08/02 06:53:30;;;;;;;0.40;0.20;;;18.70;99.90;;;;;;4988510;28;20410;-68
2022/08/02 06:55:56;;;;;;;0.40;0.40;;;18.80;99.90;;;;;;4958783;28;20457;-68
2022/08/02 06:58:22;;;;;;;0.40;0.20;;;18.90;99.90;;;;;;4953885;28;20420;-68
2022/08/02 07:00:48;;;;;;;0.40;0.20;;;19.00;99.90;;;;;;4953878;28;20399;-68
2022/08/02 07:03:14;;;;;;;0.90;0.90;;;19.10;99.90;;;;;;4963859;28;20771;-68
2022/08/02 07:05:41;;;;;;;0.40;0.40;;;19.20;99.90;;;;;;4973308;28;20481;-68
2022/08/02 07:08:06;;;;;;;0.43;0.40;;;19.30;99.90;;;;;;4988764;28;20415;-69
2022/08/02 07:10:32;;;;;;;0.40;0.20;;;19.30;99.90;;;;;;4972492;28;20934;-68
2022/08/02 07:12:59;;;;;;;0.40;0.20;;;19.40;99.90;;;;;;4988764;28;20403;-68
2022/08/02 07:15:25;;;;;;;0.40;0.20;;;19.40;99.90;;;;;;4972596;28;20407;-68
2022/08/02 07:17:51;;;;;;;0.77;0.60;;;19.60;99.90;;;;;;4972870;28;20451;-68
2022/08/02 07:20:17;;;;;;;0.40;0.30;;;19.70;99.90;;;;;;4972833;28;20395;-68
2022/08/02 07:22:43;;;;;;;0.40;0.30;;;19.80;99.90;;;;;;4972324;28;20407;-69
2022/08/02 07:25:09;;;;;;;0.40;0.20;;;19.80;99.90;;;;;;4972799;28;20398;-68
2022/08/02 07:27:35;;;;;;;0.40;0.20;;;19.90;99.90;;;;;;4972764;28;20510;-68
2022/08/02 07:30:01;;;;;;;0.43;0.32;;;19.90;99.90;;;;;;4972493;28;20497;-69
2022/08/02 07:32:30;;;;;;;0.40;0.20;;;20.00;99.90;;;;;;4989955;28;20386;-68
2022/08/02 07:34:57;;;;;;;0.70;0.70;;;20.00;99.90;;;;;;4972689;28;20406;-68
2022/08/02 07:37:29;;;;;;;0.40;0.30;;;20.10;99.90;;;;;;4988393;28;20407;-70
2022/08/02 07:39:56;;;;;;;0.40;0.30;;;20.20;99.90;;;;;;4988268;28;20471;-69
2022/08/02 07:42:21;;;;;;;0.40;0.30;;;20.20;99.90;;;;;;4988249;28;20901;-69
2022/08/02 07:44:47;;;;;;;0.40;0.30;;;20.30;99.90;;;;;;4972201;28;20399;-68
2022/08/02 07:47:13;;;;;;;0.40;0.20;;;20.50;99.90;;;;;;4971596;28;20430;-69
2022/08/02 07:49:39;;;;;;;0.40;0.20;;;20.70;99.90;;;;;;4988157;28;20399;-69
2022/08/02 07:52:05;;;;;;;0.40;0.20;;;20.90;99.90;;;;;;4971950;28;20391;-69
2022/08/02 07:54:32;;;;;;;0.40;0.20;;;21.20;99.90;;;;;;4985662;28;22103;-69
2022/08/02 07:56:58;;;;;;;0.40;0.30;;;21.30;99.90;;;;;;4953201;28;20432;-69
2022/08/02 07:59:23;;;;;;;0.40;0.20;;;21.40;99.90;;;;;;4956483;28;20407;-68
2022/08/02 08:01:50;;;;;;;0.40;0.30;;;21.50;99.90;;;;;;4972159;28;20471;-69
2022/08/02 08:04:16;;;;;;;0.40;0.20;;;21.50;99.90;;;;;;4971935;28;21001;-68
2022/08/02 08:06:42;;;;;;;0.40;0.20;;;21.50;99.90;;;;;;4972051;28;20529;-69
2022/08/02 08:09:11;;;;;;;0.40;0.20;;;21.60;99.90;;;;;;4972224;28;20474;-69
2022/08/02 08:11:37;;;;;;;0.40;0.30;;;21.60;99.90;;;;;;4972018;28;20438;-69
2022/08/02 08:14:05;;;;;;;0.40;0.20;;;21.80;99.90;;;;;;4971607;28;20438;-69
2022/08/02 08:16:31;;;;;;;0.40;0.20;;;21.90;99.90;;;;;;4971734;28;20492;-69
2022/08/02 08:18:57;;;;;;;0.40;0.40;;;22.00;99.90;;;;;;4987749;28;20552;-69
2022/08/02 08:21:23;;;;;;;0.40;0.27;;;22.10;99.90;;;;;;4971393;28;20489;-69
2022/08/02 08:23:49;;;;;;;0.40;0.23;;;22.20;99.90;;;;;;4988424;28;20540;-69
2022/08/02 08:26:15;;;;;;;0.40;0.20;;;22.30;99.90;;;;;;4972240;28;20478;-70
2022/08/02 08:28:41;;;;;;;0.40;0.30;;;22.40;99.90;;;;;;4975466;28;20414;-70
2022/08/02 08:31:06;;;;;;;0.40;0.20;;;22.50;99.90;;;;;;4975209;28;20431;-69
2022/08/02 08:33:32;;;;;;;0.40;0.30;;;22.60;99.90;;;;;;4991292;28;21238;-69
2022/08/02 08:35:58;;;;;;;0.40;0.30;;;22.70;99.90;;;;;;4990582;28;20882;-69
2022/08/02 08:38:24;;;;;;;0.40;0.20;;;22.80;99.90;;;;;;4991352;28;20406;-69
2022/08/02 08:40:50;;;;;;;0.40;0.20;;;22.90;99.90;;;;;;4992139;28;20459;-69
2022/08/02 08:43:16;;;;;;;0.40;0.20;;;22.90;99.90;;;;;;4992112;28;20752;-69
2022/08/02 08:45:46;;;;;;;0.40;0.20;;;22.90;99.90;;;;;;4974689;28;20509;-69
2022/08/02 08:48:15;;;;;;;0.40;0.20;;;22.90;99.90;;;;;;4991073;28;20426;-69
2022/08/02 08:50:59;;;;;;;0.40;0.20;;;23.00;99.90;;;;;;4953971;28;20881;-69
2022/08/02 08:53:28;;;;;;;0.40;0.20;;;23.00;99.90;;;;;;4985477;28;20406;-69
2022/08/02 08:55:56;;;;;;;0.40;0.40;;;23.10;99.90;;;;;;4977691;28;20411;-69
2022/08/02 08:58:22;;;;;;;0.50;0.50;;;23.20;99.90;;;;;;4955652;28;20432;-70
2022/08/02 09:00:48;;;;;;;0.40;0.20;;;23.20;99.90;;;;;;4955536;28;20453;-69
2022/08/02 09:03:14;;;;;;;0.40;0.20;;;23.30;99.90;;;;;;4969529;28;20401;-70
2022/08/02 09:05:41;;;;;;;0.60;0.60;;;23.30;99.90;;;;;;4974657;28;20394;-70
2022/08/02 09:08:08;;;;;;;0.40;0.20;;;23.40;99.90;;;;;;4990770;28;20453;-69
2022/08/02 09:10:46;;;;;;;0.40;0.20;;;23.30;99.90;;;;;;4974228;28;20398;-69
2022/08/02 09:13:16;;;;;;;0.50;0.50;;;23.40;99.90;;;;;;4990892;28;20894;-69
2022/08/02 09:15:44;;;;;;;0.40;0.20;;;23.50;99.90;;;;;;4990481;28;20902;-69
2022/08/02 09:18:15;;;;;;;0.40;0.20;;;23.50;99.90;;;;;;4991150;28;20391;-69
2022/08/02 09:20:52;;;;;;;0.40;0.20;;;23.60;99.90;;;;;;4990633;28;20442;-69
2022/08/02 09:23:18;;;;;;;0.40;0.20;;;23.70;99.90;;;;;;4990280;28;20418;-69
2022/08/02 09:26:05;;;;;;;0.40;0.20;;;23.70;99.90;;;;;;4974636;28;20403;-69
2022/08/02 09:28:33;;;;;;;0.50;0.50;;;23.80;99.90;;;;;;4990062;28;20918;-69
2022/08/02 09:31:03;;;;;;;0.40;0.20;;;23.90;99.90;;;;;;4990398;28;20398;-70
2022/08/02 09:33:29;;;;;;;0.40;0.20;;;23.80;99.90;;;;;;4990104;28;20438;-69
2022/08/02 09:36:00;;;;;;;0.40;0.30;;;23.80;99.90;;;;;;4974137;28;20455;-70
2022/08/02 09:38:26;;;;;;;0.40;0.30;;;23.70;99.90;;;;;;4989878;28;20399;-69
2022/08/02 09:40:53;;;;;;;0.40;0.20;;;23.70;99.90;;;;;;4990980;28;20399;-69
2022/08/02 09:43:19;;;;;;;0.40;0.20;;;23.70;99.90;;;;;;4974414;28;20431;-69
2022/08/02 09:45:45;;;;;;;0.70;0.70;;;23.90;99.90;;;;;;4973666;28;20422;-70
2022/08/02 09:48:11;;;;;;;0.40;0.20;;;23.90;99.90;;;;;;4990112;28;20423;-68
2022/08/02 09:50:40;;;;;;;0.40;0.30;;;23.70;99.90;;;;;;4973680;28;20410;-69
2022/08/02 09:53:12;;;;;;;0.40;0.40;;;23.70;99.90;;;;;;4973879;28;20493;-69
2022/08/02 09:55:39;;;;;;;0.40;0.30;;;23.90;99.90;;;;;;4977987;28;21491;-69
2022/08/02 09:58:19;;;;;;;0.40;0.30;;;23.80;99.90;;;;;;4955243;28;20417;-69
2022/08/02 10:00:53;;;;;;;0.40;0.30;;;23.80;99.90;;;;;;4978137;28;20402;-70
2022/08/02 10:03:19;;;;;;;0.40;0.30;;;23.80;99.90;;;;;;4990995;28;20413;-70
2022/08/02 10:05:46;;;;;;;0.40;0.30;;;24.00;99.90;;;;;;4974089;28;20395;-70
2022/08/02 10:08:13;;;;;;;0.40;0.32;;;24.00;99.90;;;;;;4991467;28;20410;-69
2022/08/02 10:10:40;;;;;;;0.40;0.30;;;24.00;99.90;;;;;;4972957;28;21269;-69
2022/08/02 10:13:06;;;;;;;0.40;0.30;;;24.20;99.90;;;;;;4973915;28;20403;-69
2022/08/02 10:15:32;;;;;;;0.40;0.30;;;24.40;99.90;;;;;;4989605;28;20402;-69
2022/08/02 10:17:58;;;;;;;0.40;0.30;;;24.30;99.90;;;;;;4974041;28;20439;-69
2022/08/02 10:20:25;;;;;;;0.40;0.20;;;24.30;99.90;;;;;;4973153;28;20857;-69
2022/08/02 10:22:52;;;;;;;0.40;0.30;;;24.50;99.90;;;;;;4973894;28;20485;-69
2022/08/02 10:25:20;;;;;;;0.40;0.30;;;24.50;99.90;;;;;;4989938;28;20441;-68
2022/08/02 10:27:48;;;;;;;0.40;0.30;;;24.60;99.90;;;;;;4989632;28;20786;-69
2022/08/02 10:30:13;;;;;;;0.40;0.20;;;24.60;99.90;;;;;;4973658;28;20763;-68
2022/08/02 10:32:44;;;;;;;0.40;0.30;;;24.30;99.90;;;;;;4973111;28;20402;-70
2022/08/02 10:35:14;;;;;;;0.40;0.30;;;24.40;99.90;;;;;;4990858;28;20716;-68
2022/08/02 10:37:43;;;;;;;0.40;0.20;;;24.80;99.90;;;;;;4989096;28;20403;-69
2022/08/02 10:40:21;;;;;;;0.40;0.20;;;24.90;99.90;;;;;;4989336;28;20499;-69
2022/08/02 10:42:52;;;;;;;0.40;0.20;;;24.80;99.90;;;;;;4974991;28;20489;-69
2022/08/02 10:45:21;;;;;;;0.40;0.30;;;24.80;99.90;;;;;;4972910;28;20507;-69
2022/08/02 10:47:59;;;;;;;0.40;0.30;;;24.90;99.90;;;;;;4989298;28;20423;-69
2022/08/02 10:50:44;;;;;;;0.60;0.60;;;24.80;99.90;;;;;;4988170;28;20411;-69
2022/08/02 10:53:22;;;;;;;0.40;0.20;;;24.80;99.90;;;;;;4989306;28;20463;-70
2022/08/02 10:55:48;;;;;;;0.40;0.20;;;24.80;99.90;;;;;;4960486;28;20413;-69
2022/08/02 10:58:26;;;;;;;0.40;0.20;;;25.00;99.90;;;;;;4959986;28;20965;-69
2022/08/02 11:00:53;;;;;;;0.60;0.40;;;25.00;99.90;;;;;;4973412;28;20447;-69
2022/08/02 11:03:28;;;;;;;0.40;0.20;;;25.30;99.90;;;;;;4973124;28;20391;-69
2022/08/02 11:06:02;;;;;;;0.40;0.30;;;25.20;99.90;;;;;;4988976;28;20394;-71
2022/08/02 11:08:28;;;;;;;0.40;0.40;;;25.50;99.90;;;;;;4988431;28;20477;-69
2022/08/02 11:11:04;;;;;;;0.40;0.30;;;25.70;99.90;;;;;;4972992;28;20395;-69
2022/08/02 11:13:30;;;;;;;0.40;0.30;;;25.70;99.90;;;;;;4973530;28;20402;-69
2022/08/02 11:16:04;;;;;;;0.40;0.20;;;25.70;99.90;;;;;;4972843;28;20425;-70
2022/08/02 11:18:48;;;;;;;0.40;0.30;;;25.80;99.90;;;;;;4988287;28;20402;-69
2022/08/02 11:21:28;;;;;;;0.40;0.30;;;25.80;99.60;;;;;;4988749;28;20755;-69
2022/08/02 11:23:54;;;;;;;0.40;0.40;;;26.00;99.70;;;;;;4972849;28;20414;-69
2022/08/02 11:26:47;;;;;;;0.40;0.20;;;26.30;99.90;;;;;;4972780;28;20439;-70
2022/08/02 11:29:12;;;;;;;0.40;0.20;;;26.30;97.10;;;;;;4984686;28;20456;-69
2022/08/02 11:31:41;;;;;;;0.40;0.30;;;26.50;97.50;;;;;;4988659;28;20391;-68
2022/08/02 11:34:08;;;;;;;0.40;0.20;;;26.40;96.20;;;;;;4988804;28;20382;-68
2022/08/02 11:36:43;;;;;;;0.40;0.30;;;26.40;97.40;;;;;;4971868;28;20451;-69
2022/08/02 11:39:13;;;;;;;0.40;0.30;;;26.60;96.40;;;;;;4989916;28;20387;-68
2022/08/02 11:41:39;;;;;;;0.40;0.30;;;27.10;95.30;;;;;;4988600;28;20391;-68
2022/08/02 11:44:05;;;;;;;0.40;0.30;;;27.60;92.40;;;;;;4972850;28;20436;-69
2022/08/02 11:46:30;;;;;;;0.40;0.30;;;28.40;91.30;;;;;;4971495;28;20525;-69
2022/08/02 11:48:57;;;;;;;0.50;0.50;;;28.60;87.80;;;;;;4988916;28;20438;-69
2022/08/02 11:51:23;;;;;;;0.40;0.20;;;29.50;81.70;;;;;;4972173;28;20421;-70
2022/08/02 11:53:56;;;;;;;0.40;0.20;;;29.20;78.20;;;;;;4972166;28;20399;-69
2022/08/02 11:56:33;;;;;;;0.40;0.20;;;29.00;80.30;;;;;;4970975;28;20420;-70
2022/08/02 11:59:08;;;;;;;0.40;0.20;;;29.40;75.50;;;;;;4969087;28;20388;-68
2022/08/02 12:01:37;;;;;;;0.40;0.20;;;29.00;85.00;;;;;;4967344;28;20454;-69
2022/08/02 12:04:05;;;;;;;0.40;0.20;;;29.40;80.90;;;;;;4968959;28;20392;-68
2022/08/02 12:06:33;;;;;;;0.40;0.20;;;30.30;73.20;;;;;;5017799;28;20407;-68
2022/08/02 12:09:09;;;;;;;0.40;0.20;;;29.30;81.60;;;;;;4972182;28;20757;-69
2022/08/02 12:11:35;;;;;;;0.40;0.20;;;30.00;73.90;;;;;;4987985;28;20390;-69
2022/08/02 12:14:01;;;;;;;0.40;0.20;;;29.80;71.30;;;;;;4972576;28;20916;-68
2022/08/02 12:19:25;;;;;;;0.40;0.20;;;30.10;73.90;;;;;;4989449;28;20417;-68
2022/08/02 12:22:07;;;;;;;0.40;0.20;;;30.20;72.60;;;;;;4987653;28;20486;-68
2022/08/02 12:24:33;;;;;;;0.40;0.20;;;31.30;69.50;;;;;;4987835;28;20386;-69
2022/08/02 12:26:59;;;;;;;0.40;0.20;;;30.30;69.40;;;;;;4987899;28;20430;-68
2022/08/02 12:29:33;;;;;;;0.40;0.20;;;31.10;64.60;;;;;;4987656;28;20406;-68
2022/08/02 12:31:59;;;;;;;0.40;0.20;;;31.00;67.60;;;;;;4987993;28;20535;-69
2022/08/02 12:34:28;;;;;;;0.40;0.20;;;30.90;66.10;;;;;;4987647;28;20410;-69
2022/08/02 12:36:58;;;;;;;0.40;0.20;;;30.90;65.50;;;;;;4987821;28;20401;-68
2022/08/02 12:39:42;;;;;;;0.40;0.20;;;31.40;64.80;;;;;;4971686;28;20897;-69
2022/08/02 12:42:10;;;;;;;0.40;0.20;;;30.00;63.80;;;;;;4971793;28;20403;-69
2022/08/02 12:44:43;;;;;;;0.40;0.20;;;30.50;66.40;;;;;;4987281;28;20491;-68
2022/08/02 12:47:09;;;;;;;0.40;0.20;;;30.10;63.90;;;;;;4987665;28;20426;-70
2022/08/02 12:49:35;;;;;;;0.40;0.20;;;30.20;64.80;;;;;;4987634;28;20391;-69
2022/08/02 12:52:01;;;;;;;0.40;0.20;;;31.00;61.90;;;;;;4971481;28;20395;-69
2022/08/02 12:54:37;;;;;;;0.40;0.30;;;31.00;61.70;;;;;;4985234;28;20464;-70
2022/08/02 12:57:14;;;;;;;0.40;0.20;;;31.20;58.30;;;;;;4968059;28;20404;-68
2022/08/02 12:59:43;;;;;;;0.40;0.20;;;31.20;60.20;;;;;;4952081;28;20427;-68